createdAt,value
2023-03-18T00:01:47.655Z,12.45
2023-03-18T00:04:14.046Z,13.57
2023-03-18T00:06:41.228Z,17.17
2023-03-18T00:09:07.615Z,11.20
2023-03-18T00:11:35.598Z,11.20
2023-03-18T00:14:02.065Z,14.52
2023-03-18T00:16:28.737Z,15.02
2023-03-18T00:18:55.342Z,10.25
2023-03-18T00:21:21.751Z,15.13
2023-03-18T00:23:48.153Z,9.52
2023-03-18T00:26:14.547Z,12.65
2023-03-18T00:28:40.962Z,10.75
2023-03-18T00:31:11.617Z,11.85
2023-03-18T00:33:39.659Z,14.48
2023-03-18T00:36:07.845Z,10.13
2023-03-18T00:38:36.972Z,10.05
2023-03-18T00:41:03.686Z,17.70
2023-03-18T00:43:31.161Z,13.50
2023-03-18T00:45:57.841Z,14.15
2023-03-18T00:48:25.645Z,10.73
2023-03-18T00:50:52.568Z,11.57
2023-03-18T00:53:20.370Z,12.73
2023-03-18T00:55:46.677Z,12.07
2023-03-18T00:58:13.239Z,12.82
2023-03-18T01:00:40.945Z,9.50
2023-03-18T01:03:07.990Z,10.15
2023-03-18T01:05:35.669Z,10.60
2023-03-18T01:08:02.031Z,12.65
2023-03-18T01:10:28.898Z,11.23
2023-03-18T01:12:56.076Z,9.60
2023-03-18T01:15:22.657Z,11.95
2023-03-18T01:17:49.731Z,12.95
2023-03-18T01:20:19.955Z,13.40
2023-03-18T01:22:46.427Z,11.13
2023-03-18T01:25:15.875Z,14.15
2023-03-18T01:27:43.405Z,16.48
2023-03-18T01:30:11.104Z,12.30
2023-03-18T01:32:37.519Z,10.57
2023-03-18T01:35:05.222Z,11.55
2023-03-18T01:37:31.699Z,10.93
2023-03-18T01:39:58.010Z,14.07
2023-03-18T01:42:24.628Z,11.70
2023-03-18T01:45:11.852Z,11.98
2023-03-18T01:47:38.204Z,12.57
2023-03-18T01:50:04.991Z,13.88
2023-03-18T01:52:32.503Z,9.02
2023-03-18T01:55:04.052Z,12.10
2023-03-18T01:57:31.751Z,9.18
2023-03-18T01:59:59.963Z,10.65
2023-03-18T02:02:26.905Z,9.00
2023-03-18T02:04:55.848Z,9.20
2023-03-18T02:07:27.068Z,12.50
2023-03-18T02:09:55.144Z,10.32
2023-03-18T02:12:25.192Z,12.63
2023-03-18T02:14:53.198Z,10.20
2023-03-18T02:17:23.096Z,10.13
2023-03-18T02:20:08.163Z,11.73
2023-03-18T02:22:43.122Z,11.60
2023-03-18T02:25:31.015Z,8.98
2023-03-18T02:28:02.347Z,8.05
2023-03-18T02:30:36.090Z,11.25
2023-03-18T02:33:03.314Z,8.23
2023-03-18T02:35:31.572Z,7.60
2023-03-18T02:37:58.590Z,8.65
2023-03-18T02:40:37.133Z,9.70
2023-03-18T02:43:28.270Z,9.02
2023-03-18T02:46:16.652Z,10.10
2023-03-18T02:48:46.230Z,12.02
2023-03-18T02:51:14.414Z,12.82
2023-03-18T02:53:41.038Z,10.98
2023-03-18T02:56:08.664Z,8.40
2023-03-18T02:58:36.475Z,9.70
2023-03-18T03:01:05.026Z,11.95
2023-03-18T03:03:31.797Z,12.05
2023-03-18T03:05:58.844Z,11.75
2023-03-18T03:08:25.295Z,8.48
2023-03-18T03:10:52.069Z,13.82
2023-03-18T03:13:20.103Z,10.52
2023-03-18T03:15:46.736Z,10.82
2023-03-18T03:18:13.246Z,10.35
2023-03-18T03:20:40.383Z,10.85
2023-03-18T03:23:09.119Z,12.20
2023-03-18T03:25:36.814Z,14.82
2023-03-18T03:28:04.312Z,11.73
2023-03-18T03:30:31.850Z,12.73
2023-03-18T03:32:59.628Z,12.27
2023-03-18T03:35:26.227Z,18.00
2023-03-18T03:37:52.597Z,13.93
2023-03-18T03:40:20.889Z,15.90
2023-03-18T03:42:48.479Z,13.18
2023-03-18T03:45:16.946Z,17.35
2023-03-18T03:47:44.010Z,14.95
2023-03-18T03:50:11.128Z,13.55
2023-03-18T03:52:38.212Z,14.43
2023-03-18T03:55:07.455Z,11.90
2023-03-18T03:57:35.128Z,13.10
2023-03-18T04:00:02.803Z,12.88
2023-03-18T04:02:32.009Z,11.45
2023-03-18T04:04:58.518Z,13.73
2023-03-18T04:07:24.966Z,9.93
2023-03-18T04:09:51.293Z,11.93
2023-03-18T04:12:19.978Z,14.80
2023-03-18T04:14:47.567Z,14.00
2023-03-18T04:17:14.665Z,12.10
2023-03-18T04:19:41.277Z,17.92
2023-03-18T04:22:07.701Z,14.02
2023-03-18T04:24:34.264Z,12.60
2023-03-18T04:27:00.741Z,13.73
2023-03-18T04:29:27.085Z,11.13
2023-03-18T04:31:56.024Z,10.57
2023-03-18T04:34:22.561Z,13.25
2023-03-18T04:36:48.924Z,11.55
2023-03-18T04:39:15.573Z,10.25
2023-03-18T04:41:42.136Z,10.15
2023-03-18T04:44:08.551Z,10.23
2023-03-18T04:46:35.040Z,11.75
2023-03-18T04:49:01.532Z,14.48
2023-03-18T04:51:27.838Z,9.52
2023-03-18T04:53:54.130Z,12.57
2023-03-18T04:56:20.587Z,14.98
2023-03-18T04:58:47.595Z,12.80
2023-03-18T05:01:14.596Z,10.07
2023-03-18T05:03:41.881Z,11.45
2023-03-18T05:06:09.617Z,18.42
2023-03-18T05:08:36.882Z,10.52
2023-03-18T05:11:04.364Z,11.10
2023-03-18T05:13:30.700Z,12.30
2023-03-18T05:15:57.195Z,12.27
2023-03-18T05:18:23.731Z,10.35
2023-03-18T05:20:50.110Z,13.82
2023-03-18T05:23:16.429Z,10.95
2023-03-18T05:25:42.947Z,10.25
2023-03-18T05:28:11.312Z,10.93
2023-03-18T05:30:37.867Z,11.02
2023-03-18T05:33:04.261Z,13.90
2023-03-18T05:35:30.888Z,14.13
2023-03-18T05:37:57.557Z,10.88
2023-03-18T05:40:24.077Z,22.00
2023-03-18T05:42:56.257Z,12.27
2023-03-18T05:45:23.200Z,13.82
2023-03-18T05:47:50.047Z,13.07
2023-03-18T05:50:35.054Z,10.00
2023-03-18T05:53:04.132Z,14.02
2023-03-18T05:55:31.363Z,9.55
2023-03-18T05:57:58.338Z,12.40
2023-03-18T06:00:25.499Z,10.18
2023-03-18T06:02:52.050Z,17.08
2023-03-18T06:05:18.911Z,9.77
2023-03-18T06:07:45.480Z,9.25
2023-03-18T06:10:12.274Z,9.45
2023-03-18T06:12:40.093Z,8.85
2023-03-18T06:15:08.329Z,12.38
2023-03-18T06:17:35.604Z,10.10
2023-03-18T06:20:03.528Z,10.50
2023-03-18T06:22:30.230Z,11.35
2023-03-18T06:24:56.785Z,11.43
2023-03-18T06:27:23.440Z,12.57
2023-03-18T06:29:49.916Z,11.75
2023-03-18T06:32:16.402Z,16.60
2023-03-18T06:34:43.276Z,16.85
2023-03-18T06:37:09.908Z,14.02
2023-03-18T06:39:36.564Z,13.90
2023-03-18T06:42:02.906Z,12.27
2023-03-18T06:44:29.347Z,12.43
2023-03-18T06:46:56.141Z,12.73
2023-03-18T06:49:22.696Z,11.32
2023-03-18T06:51:49.106Z,11.20
2023-03-18T06:54:15.711Z,9.98
2023-03-18T06:56:43.403Z,11.25
2023-03-18T06:59:11.064Z,11.57
2023-03-18T07:01:37.663Z,16.45
2023-03-18T07:04:04.547Z,16.02
2023-03-18T07:06:32.028Z,10.45
2023-03-18T07:08:59.025Z,12.52
2023-03-18T07:11:25.598Z,11.45
2023-03-18T07:13:52.348Z,14.50
2023-03-18T07:16:19.719Z,11.07
2023-03-18T07:18:46.315Z,12.18
2023-03-18T07:21:12.672Z,11.70
2023-03-18T07:23:39.126Z,11.75
2023-03-18T07:26:05.631Z,11.82
2023-03-18T07:28:32.269Z,10.23
2023-03-18T07:30:58.646Z,13.68
2023-03-18T07:33:25.075Z,12.05
2023-03-18T07:35:51.450Z,12.65
2023-03-18T07:38:17.857Z,9.68
2023-03-18T07:40:44.186Z,9.25
2023-03-18T07:43:10.836Z,12.93
2023-03-18T07:45:37.239Z,9.68
2023-03-18T07:48:03.890Z,8.82
2023-03-18T07:50:30.386Z,13.98
2023-03-18T07:52:57.084Z,10.07
2023-03-18T07:55:23.501Z,12.63
2023-03-18T07:57:50.080Z,10.00
2023-03-18T08:00:17.340Z,9.40
2023-03-18T08:02:43.904Z,8.82
2023-03-18T08:05:10.734Z,11.98
2023-03-18T08:07:37.492Z,10.38
2023-03-18T08:10:04.093Z,14.35
2023-03-18T08:12:45.085Z,17.02
2023-03-18T08:15:19.392Z,8.95
2023-03-18T08:17:45.982Z,9.02
2023-03-18T08:20:12.980Z,9.15
2023-03-18T08:22:40.242Z,8.38
2023-03-18T08:25:06.933Z,7.07
2023-03-18T08:27:33.600Z,7.60
2023-03-18T08:30:01.642Z,8.55
2023-03-18T08:32:30.321Z,5.20
2023-03-18T08:34:56.716Z,6.78
2023-03-18T08:37:23.245Z,5.38
2023-03-18T08:39:49.731Z,5.18
2023-03-18T08:42:16.112Z,6.82
2023-03-18T08:44:42.527Z,5.75
2023-03-18T08:47:09.212Z,2.78
2023-03-18T08:49:36.104Z,7.20
2023-03-18T08:52:03.318Z,4.55
2023-03-18T08:54:29.958Z,5.07
2023-03-18T08:56:56.360Z,4.72
2023-03-18T08:59:22.952Z,5.35
2023-03-18T09:01:49.500Z,6.20
2023-03-18T09:04:16.253Z,3.72
2023-03-18T09:06:42.766Z,8.07
2023-03-18T09:09:09.567Z,3.85
2023-03-18T09:11:36.001Z,3.17
2023-03-18T09:14:02.395Z,4.43
2023-03-18T09:16:29.146Z,4.88
2023-03-18T09:18:55.766Z,2.97
2023-03-18T09:21:22.170Z,5.35
2023-03-18T09:23:48.576Z,4.15
2023-03-18T09:26:15.393Z,3.72
2023-03-18T09:28:43.639Z,5.53
2023-03-18T09:31:10.378Z,3.45
2023-03-18T09:33:38.247Z,4.97
2023-03-18T09:36:05.041Z,2.70
2023-03-18T09:38:31.412Z,3.67
2023-03-18T09:41:05.529Z,5.78
2023-03-18T09:43:55.671Z,3.80
2023-03-18T09:46:54.514Z,6.85
2023-03-18T09:49:38.247Z,5.15
2023-03-18T09:52:19.037Z,3.38
2023-03-18T09:55:02.483Z,4.28
2023-03-18T09:57:33.608Z,2.15
2023-03-18T10:00:23.225Z,4.07
2023-03-18T10:02:54.864Z,3.75
2023-03-18T10:05:30.410Z,4.05
2023-03-18T10:08:03.835Z,3.20
2023-03-18T10:10:41.455Z,4.25
2023-03-18T10:13:17.413Z,5.45
2023-03-18T10:15:52.412Z,4.97
2023-03-18T10:18:26.600Z,3.00
2023-03-18T10:20:59.281Z,3.33
2023-03-18T10:23:37.971Z,3.83
2023-03-18T10:26:38.458Z,2.10
2023-03-18T10:29:26.804Z,2.33
2023-03-18T10:32:20.532Z,3.97
2023-03-18T10:35:03.854Z,2.92
2023-03-18T10:37:54.063Z,3.63
2023-03-18T10:40:21.283Z,5.43
2023-03-18T10:42:50.234Z,4.57
2023-03-18T10:45:25.065Z,1.85
2023-03-18T10:48:18.571Z,2.80
2023-03-18T10:50:56.625Z,1.88
2023-03-18T10:53:43.941Z,2.85
2023-03-18T10:56:12.701Z,2.33
2023-03-18T10:58:40.415Z,2.15
2023-03-18T11:01:16.341Z,2.83
2023-03-18T11:03:51.692Z,3.33
2023-03-18T11:06:26.715Z,2.92
2023-03-18T11:09:04.869Z,2.08
2023-03-18T11:11:34.111Z,2.35
2023-03-18T11:14:04.491Z,1.23
2023-03-18T11:16:37.130Z,3.08
2023-03-18T11:19:22.348Z,3.50
2023-03-18T11:21:49.474Z,2.38
2023-03-18T11:24:26.987Z,1.98
2023-03-18T11:26:57.233Z,3.55
2023-03-18T11:29:30.064Z,4.53
2023-03-18T11:32:00.601Z,5.55
2023-03-18T11:37:01.537Z,2.10
2023-03-18T11:39:31.922Z,4.32
2023-03-18T11:42:00.975Z,4.18
2023-03-18T11:44:33.525Z,3.10
2023-03-18T11:47:07.127Z,2.72
2023-03-18T11:49:33.750Z,3.55
2023-03-18T11:52:27.199Z,7.32
2023-03-18T11:55:01.523Z,2.92
2023-03-18T11:57:55.261Z,5.20
2023-03-18T12:00:51.211Z,3.22
2023-03-18T12:03:49.057Z,2.05
2023-03-18T12:06:29.381Z,2.42
2023-03-18T12:09:30.170Z,3.05
2023-03-18T12:12:20.419Z,3.38
2023-03-18T12:14:58.786Z,3.20
2023-03-18T12:17:49.737Z,6.47
2023-03-18T12:20:37.031Z,2.92
2023-03-18T12:23:21.493Z,3.30
2023-03-18T12:26:19.137Z,1.67
2023-03-18T12:29:37.665Z,3.65
2023-03-18T12:32:38.296Z,3.30
2023-03-18T12:37:57.610Z,6.50
2023-03-18T12:40:40.752Z,4.63
2023-03-18T12:43:26.764Z,2.33
2023-03-18T12:45:59.809Z,2.08
2023-03-18T12:48:44.954Z,2.05
2023-03-18T12:51:25.674Z,2.03
2023-03-18T12:54:00.622Z,2.22
2023-03-18T12:56:29.858Z,3.10
2023-03-18T12:59:15.493Z,1.20
2023-03-18T13:02:14.055Z,2.55
2023-03-18T13:04:48.322Z,3.65
2023-03-18T13:07:40.463Z,2.75
2023-03-18T13:10:24.275Z,1.55
2023-03-18T13:13:01.207Z,2.78
2023-03-18T13:15:35.985Z,1.52
2023-03-18T13:18:31.426Z,1.92
2023-03-18T13:20:59.380Z,2.95
2023-03-18T13:23:48.461Z,3.28
2023-03-18T13:26:44.236Z,2.03
2023-03-18T13:29:39.810Z,1.75
2023-03-18T13:32:40.255Z,2.25
2023-03-18T13:35:27.688Z,1.50
2023-03-18T13:38:18.894Z,1.55
2023-03-18T13:41:00.927Z,2.65
2023-03-18T13:43:28.657Z,2.53
2023-03-18T13:45:57.466Z,1.63
2023-03-18T13:48:30.992Z,2.40
2023-03-18T13:50:58.970Z,3.28
2023-03-18T13:53:30.235Z,3.92
2023-03-18T13:55:56.519Z,2.20
2023-03-18T13:58:46.190Z,1.33
2023-03-18T14:01:27.401Z,2.33
2023-03-18T14:04:14.905Z,1.60
2023-03-18T14:06:56.486Z,2.15
2023-03-18T14:09:33.123Z,2.05
2023-03-18T14:12:17.743Z,1.98
2023-03-18T14:15:09.731Z,1.80
2023-03-18T14:17:44.317Z,2.72
2023-03-18T14:20:22.504Z,2.20
2023-03-18T14:22:52.200Z,2.15
2023-03-18T14:25:18.640Z,4.97
2023-03-18T14:27:46.526Z,1.13
2023-03-18T14:30:39.199Z,2.00
2023-03-18T14:33:17.638Z,2.92
2023-03-18T14:35:58.214Z,3.53
2023-03-18T14:40:56.718Z,1.60
2023-03-18T14:43:30.347Z,2.15
2023-03-18T14:45:59.750Z,2.45
2023-03-18T14:48:33.751Z,4.27
2023-03-18T14:51:23.988Z,1.00
2023-03-18T14:53:53.916Z,4.28
2023-03-18T14:56:30.990Z,2.88
2023-03-18T14:58:57.332Z,2.53
2023-03-18T15:01:28.299Z,1.38
2023-03-18T15:03:54.920Z,1.42
2023-03-18T15:06:30.738Z,1.95
2023-03-18T15:09:25.997Z,2.15
2023-03-18T15:11:53.062Z,2.97
2023-03-18T15:14:29.694Z,2.03
2023-03-18T15:16:59.265Z,1.70
2023-03-18T15:19:28.405Z,1.27
2023-03-18T15:21:57.993Z,3.08
2023-03-18T15:24:26.495Z,3.53
2023-03-18T15:27:12.758Z,1.42
2023-03-18T15:29:51.718Z,1.85
2023-03-18T15:32:25.435Z,2.10
2023-03-18T15:34:54.829Z,1.67
2023-03-18T15:37:32.274Z,2.38
2023-03-18T15:40:15.932Z,2.88
2023-03-18T15:42:45.767Z,1.33
2023-03-18T15:45:21.419Z,2.33
2023-03-18T15:47:48.829Z,3.80
2023-03-18T15:50:25.185Z,1.95
2023-03-18T15:53:03.336Z,2.80
2023-03-18T15:55:35.385Z,2.15
2023-03-18T15:58:05.350Z,1.20
2023-03-18T16:00:32.976Z,4.13
2023-03-18T16:02:59.356Z,2.90
2023-03-18T16:05:27.510Z,3.95
2023-03-18T16:07:53.959Z,2.85
2023-03-18T16:10:22.595Z,2.67
2023-03-18T16:12:53.506Z,2.03
2023-03-18T16:15:21.916Z,1.70
2023-03-18T16:17:49.981Z,3.22
2023-03-18T16:20:34.323Z,6.35
2023-03-18T16:23:00.836Z,2.38
2023-03-18T16:25:28.464Z,2.08
2023-03-18T16:27:57.127Z,3.15
2023-03-18T16:30:26.472Z,1.70
2023-03-18T16:32:54.699Z,2.35
2023-03-18T16:35:24.838Z,5.13
2023-03-18T16:37:55.121Z,3.83
2023-03-18T16:40:24.617Z,7.00
2023-03-18T16:42:51.704Z,2.70
2023-03-18T16:45:20.497Z,4.38
2023-03-18T16:47:49.933Z,4.55
2023-03-18T16:50:23.571Z,7.88
2023-03-18T16:52:51.043Z,3.60
2023-03-18T16:55:19.510Z,3.90
2023-03-18T16:58:17.136Z,3.55
2023-03-18T17:00:45.231Z,5.45
2023-03-18T17:03:12.726Z,4.13
2023-03-18T17:05:39.127Z,4.75
2023-03-18T17:08:05.797Z,11.48
2023-03-18T17:10:32.159Z,4.20
2023-03-18T17:13:01.153Z,7.63
2023-03-18T17:15:33.533Z,6.05
2023-03-18T17:18:01.689Z,8.27
2023-03-18T17:20:29.871Z,12.05
2023-03-18T17:22:56.277Z,6.18
2023-03-18T17:25:25.914Z,7.40
2023-03-18T17:27:55.396Z,6.70
2023-03-18T17:30:31.130Z,5.72
2023-03-18T17:32:57.843Z,4.85
2023-03-18T17:35:24.514Z,6.47
2023-03-18T17:37:51.173Z,5.93
2023-03-18T17:40:19.386Z,5.95
2023-03-18T17:42:47.500Z,7.78
2023-03-18T17:45:35.572Z,5.40
2023-03-18T17:48:16.008Z,10.70
2023-03-18T17:50:43.812Z,7.32
2023-03-18T17:53:27.733Z,11.48
2023-03-18T17:55:55.385Z,9.05
2023-03-18T17:58:24.166Z,5.28
2023-03-18T18:00:50.981Z,10.05
2023-03-18T18:03:21.794Z,6.38
2023-03-18T18:05:49.602Z,6.07
2023-03-18T18:08:18.078Z,7.22
2023-03-18T18:10:45.811Z,9.63
2023-03-18T18:13:18.371Z,7.25
2023-03-18T18:15:46.261Z,8.30
2023-03-18T18:18:18.838Z,8.20
2023-03-18T18:20:45.780Z,7.72
2023-03-18T18:23:21.315Z,8.32
2023-03-18T18:25:47.623Z,8.75
2023-03-18T18:28:20.595Z,8.20
2023-03-18T18:30:48.254Z,6.40
2023-03-18T18:33:14.778Z,9.23
2023-03-18T18:35:41.118Z,6.80
2023-03-18T18:38:07.628Z,8.02
2023-03-18T18:40:33.948Z,7.95
2023-03-18T18:43:00.251Z,7.60
2023-03-18T18:45:26.680Z,6.43
2023-03-18T18:47:53.260Z,9.07
2023-03-18T18:50:24.297Z,7.05
2023-03-18T18:52:50.657Z,9.40
2023-03-18T18:55:17.016Z,7.07
2023-03-18T18:57:43.649Z,7.93
2023-03-18T19:00:21.994Z,6.90
2023-03-18T19:02:50.957Z,7.85
2023-03-18T19:05:19.131Z,10.43
2023-03-18T19:07:45.630Z,8.20
2023-03-18T19:10:14.330Z,10.00
2023-03-18T19:12:41.141Z,12.02
2023-03-18T19:15:08.507Z,9.25
2023-03-18T19:17:35.147Z,11.25
2023-03-18T19:20:02.468Z,10.00
2023-03-18T19:22:28.820Z,16.85
2023-03-18T19:24:55.212Z,16.13
2023-03-18T19:27:32.626Z,19.25
2023-03-18T19:30:01.491Z,19.38
2023-03-18T19:32:28.480Z,17.38
2023-03-18T19:34:55.012Z,16.67
2023-03-18T19:37:31.216Z,28.25
2023-03-18T19:39:59.682Z,15.02
2023-03-18T19:42:29.175Z,11.70
2023-03-18T19:44:55.525Z,16.35
2023-03-18T19:47:30.296Z,12.55
2023-03-18T19:49:56.920Z,12.02
2023-03-18T19:52:25.715Z,9.88
2023-03-18T19:54:53.331Z,12.52
2023-03-18T19:57:27.388Z,10.60
2023-03-18T19:59:56.822Z,12.00
2023-03-18T20:02:25.423Z,11.15
2023-03-18T20:04:57.266Z,13.43
2023-03-18T20:07:26.231Z,13.80
2023-03-18T20:09:53.864Z,23.13
2023-03-18T20:12:39.862Z,27.05
2023-03-18T20:15:14.899Z,28.13
2023-03-18T20:17:43.247Z,20.67
2023-03-18T20:20:20.876Z,28.90
2023-03-18T20:22:54.231Z,23.55
2023-03-18T20:25:24.933Z,9.75
2023-03-18T20:30:22.173Z,14.88
2023-03-18T20:32:49.211Z,18.38
2023-03-18T20:35:15.891Z,13.52
2023-03-18T20:37:43.601Z,11.32
2023-03-18T20:40:30.627Z,11.82
2023-03-18T20:42:57.472Z,13.10
2023-03-18T20:45:25.651Z,18.95
2023-03-18T20:47:52.474Z,11.65
2023-03-18T20:50:25.610Z,10.32
2023-03-18T20:52:51.962Z,9.20
2023-03-18T20:55:21.505Z,9.73
2023-03-18T20:57:49.526Z,10.73
2023-03-18T21:00:19.410Z,14.68
2023-03-18T21:02:47.446Z,14.40
2023-03-18T21:05:14.899Z,20.98
2023-03-18T21:07:42.237Z,16.73
2023-03-18T21:10:14.433Z,11.13
2023-03-18T21:12:41.089Z,13.73
2023-03-18T21:15:14.460Z,11.57
2023-03-18T21:17:40.993Z,11.88
2023-03-18T21:20:21.777Z,10.45
2023-03-18T21:22:50.309Z,12.35
2023-03-18T21:25:19.908Z,7.82
2023-03-18T21:27:46.561Z,11.23
2023-03-18T21:30:14.672Z,12.23
2023-03-18T21:32:41.456Z,12.07
2023-03-18T21:35:16.538Z,10.75
2023-03-18T21:37:42.874Z,11.55
2023-03-18T21:40:18.727Z,12.90
2023-03-18T21:42:45.401Z,14.00
2023-03-18T21:45:15.236Z,10.02
2023-03-18T21:47:42.299Z,14.23
2023-03-18T21:50:19.463Z,15.13
2023-03-18T21:52:46.222Z,10.23
2023-03-18T21:55:13.208Z,10.68
2023-03-18T21:57:39.526Z,13.18
2023-03-18T22:00:06.942Z,13.98
2023-03-18T22:02:36.563Z,12.65
2023-03-18T22:05:08.047Z,11.35
2023-03-18T22:07:34.355Z,10.68
2023-03-18T22:10:00.867Z,9.98
2023-03-18T22:12:32.062Z,8.05
2023-03-18T22:14:59.465Z,11.68
2023-03-18T22:17:31.039Z,14.35
2023-03-18T22:19:59.567Z,8.68
2023-03-18T22:22:36.705Z,11.95
2023-03-18T22:25:04.543Z,15.40
2023-03-18T22:27:32.286Z,10.50
2023-03-18T22:30:00.122Z,12.05
2023-03-18T22:32:42.170Z,13.50
2023-03-18T22:35:17.654Z,10.18
2023-03-18T22:37:44.901Z,16.75
2023-03-18T22:40:29.292Z,11.18
2023-03-18T22:42:58.398Z,13.32
2023-03-18T22:45:33.618Z,13.45
2023-03-18T22:48:04.303Z,13.60
2023-03-18T22:50:33.290Z,11.13
2023-03-18T22:53:05.704Z,11.43
2023-03-18T22:55:36.059Z,10.85
2023-03-18T22:58:03.148Z,14.68
2023-03-18T23:00:44.177Z,11.10
2023-03-18T23:03:19.541Z,13.98
2023-03-18T23:05:48.102Z,14.35
2023-03-18T23:08:14.481Z,10.85
2023-03-18T23:10:42.874Z,11.20
2023-03-18T23:13:30.290Z,11.05
2023-03-18T23:15:56.777Z,14.68
2023-03-18T23:18:23.780Z,12.30
2023-03-18T23:20:52.015Z,11.65
2023-03-18T23:23:18.752Z,11.50
2023-03-18T23:25:45.882Z,11.82
2023-03-18T23:28:13.182Z,10.55
2023-03-18T23:30:42.410Z,12.63
2023-03-18T23:33:09.739Z,9.90
2023-03-18T23:35:37.026Z,10.68
2023-03-18T23:38:04.440Z,11.82
2023-03-18T23:40:31.087Z,12.13
2023-03-18T23:42:57.579Z,10.68
2023-03-18T23:45:24.252Z,11.00
2023-03-18T23:47:51.289Z,10.35
2023-03-18T23:50:17.908Z,11.20
2023-03-18T23:52:44.354Z,11.73
2023-03-18T23:55:30.455Z,13.90
2023-03-18T23:57:58.831Z,10.40
